sensor_id;sensor_type;location;lat;lon;timestamp;pressure;altitude;pressure_sealevel;temperature;humidity
70254;BME280;57649;42.968;1.608;2023-04-03T00:01:12;97885.53;;;7.24;100.00
70254;BME280;57649;42.968;1.608;2023-04-03T00:03:37;97882.81;;;7.14;100.00
70254;BME280;57649;42.968;1.608;2023-04-03T00:06:03;97880.44;;;7.11;100.00
70254;BME280;57649;42.968;1.608;2023-04-03T00:08:30;97888.00;;;7.16;100.00
70254;BME280;57649;42.968;1.608;2023-04-03T00:10:58;97881.94;;;7.04;100.00
70254;BME280;57649;42.968;1.608;2023-04-03T00:13:23;97884.84;;;6.91;100.00
70254;BME280;57649;42.968;1.608;2023-04-03T00:15:49;97892.03;;;6.79;100.00
70254;BME280;57649;42.968;1.608;2023-04-03T00:18:14;97866.69;;;6.75;100.00
70254;BME280;57649;42.968;1.608;2023-04-03T00:20:40;97871.78;;;6.88;100.00
70254;BME280;57649;42.968;1.608;2023-04-03T00:23:05;97873.41;;;6.79;100.00
70254;BME280;57649;42.968;1.608;2023-04-03T00:25:31;97869.66;;;6.82;100.00
70254;BME280;57649;42.968;1.608;2023-04-03T00:27:56;97873.69;;;6.76;100.00
70254;BME280;57649;42.968;1.608;2023-04-03T00:30:22;97873.25;;;6.71;100.00
70254;BME280;57649;42.968;1.608;2023-04-03T00:32:48;97878.28;;;6.74;100.00
70254;BME280;57649;42.968;1.608;2023-04-03T00:35:14;97868.75;;;6.71;100.00
70254;BME280;57649;42.968;1.608;2023-04-03T00:37:41;97860.66;;;6.73;100.00
70254;BME280;57649;42.968;1.608;2023-04-03T00:40:08;97872.84;;;6.75;100.00
70254;BME280;57649;42.968;1.608;2023-04-03T00:42:33;97869.22;;;6.77;100.00
70254;BME280;57649;42.968;1.608;2023-04-03T00:47:25;97857.19;;;6.82;100.00
70254;BME280;57649;42.968;1.608;2023-04-03T00:49:52;97853.16;;;6.88;100.00
70254;BME280;57649;42.968;1.608;2023-04-03T00:52:22;97863.22;;;6.84;100.00
70254;BME280;57649;42.968;1.608;2023-04-03T00:54:50;97853.94;;;6.79;100.00
70254;BME280;57649;42.968;1.608;2023-04-03T00:57:18;97852.00;;;6.81;100.00
70254;BME280;57649;42.968;1.608;2023-04-03T00:59:46;97857.88;;;6.74;100.00
70254;BME280;57649;42.968;1.608;2023-04-03T01:02:15;97858.13;;;6.71;100.00
70254;BME280;57649;42.968;1.608;2023-04-03T01:04:43;97853.06;;;6.68;100.00
70254;BME280;57649;42.968;1.608;2023-04-03T01:07:18;97864.44;;;6.70;100.00
70254;BME280;57649;42.968;1.608;2023-04-03T01:09:47;97855.81;;;6.57;100.00
70254;BME280;57649;42.968;1.608;2023-04-03T01:14:42;97860.81;;;6.50;100.00
70254;BME280;57649;42.968;1.608;2023-04-03T01:17:28;97852.31;;;6.57;100.00
70254;BME280;57649;42.968;1.608;2023-04-03T01:25:36;97831.41;;;6.52;100.00
70254;BME280;57649;42.968;1.608;2023-04-03T01:28:02;97834.81;;;6.54;100.00
70254;BME280;57649;42.968;1.608;2023-04-03T01:30:33;97829.63;;;6.52;100.00
70254;BME280;57649;42.968;1.608;2023-04-03T01:32:59;97825.25;;;6.51;100.00
70254;BME280;57649;42.968;1.608;2023-04-03T01:35:24;97828.16;;;6.48;100.00
70254;BME280;57649;42.968;1.608;2023-04-03T01:37:50;97831.94;;;6.46;100.00
70254;BME280;57649;42.968;1.608;2023-04-03T01:40:15;97828.31;;;6.47;100.00
70254;BME280;57649;42.968;1.608;2023-04-03T01:42:41;97834.16;;;6.41;100.00
70254;BME280;57649;42.968;1.608;2023-04-03T01:45:06;97833.44;;;6.39;100.00
70254;BME280;57649;42.968;1.608;2023-04-03T01:47:32;97820.41;;;6.35;100.00
70254;BME280;57649;42.968;1.608;2023-04-03T01:49:58;97818.69;;;6.25;100.00
70254;BME280;57649;42.968;1.608;2023-04-03T01:52:23;97824.97;;;6.24;100.00
70254;BME280;57649;42.968;1.608;2023-04-03T01:54:48;97824.13;;;6.23;100.00
70254;BME280;57649;42.968;1.608;2023-04-03T01:57:14;97826.91;;;6.22;100.00
70254;BME280;57649;42.968;1.608;2023-04-03T01:59:40;97823.41;;;6.21;100.00
70254;BME280;57649;42.968;1.608;2023-04-03T02:02:06;97811.53;;;6.25;100.00
70254;BME280;57649;42.968;1.608;2023-04-03T02:04:31;97815.38;;;6.32;100.00
70254;BME280;57649;42.968;1.608;2023-04-03T02:06:57;97817.31;;;6.30;100.00
70254;BME280;57649;42.968;1.608;2023-04-03T02:09:22;97817.81;;;6.24;100.00
70254;BME280;57649;42.968;1.608;2023-04-03T02:11:47;97819.91;;;6.21;100.00
70254;BME280;57649;42.968;1.608;2023-04-03T02:14:13;97815.13;;;6.14;100.00
70254;BME280;57649;42.968;1.608;2023-04-03T02:16:38;97820.94;;;6.29;100.00
70254;BME280;57649;42.968;1.608;2023-04-03T02:19:04;97815.41;;;6.42;100.00
70254;BME280;57649;42.968;1.608;2023-04-03T02:21:29;97802.78;;;6.34;100.00
70254;BME280;57649;42.968;1.608;2023-04-03T02:23:55;97807.63;;;6.29;100.00
70254;BME280;57649;42.968;1.608;2023-04-03T02:26:20;97810.56;;;6.26;100.00
70254;BME280;57649;42.968;1.608;2023-04-03T02:28:46;97804.81;;;6.21;100.00
70254;BME280;57649;42.968;1.608;2023-04-03T02:31:12;97801.94;;;6.13;100.00
70254;BME280;57649;42.968;1.608;2023-04-03T02:33:37;97803.22;;;6.19;100.00
70254;BME280;57649;42.968;1.608;2023-04-03T02:36:04;97786.53;;;6.07;100.00
70254;BME280;57649;42.968;1.608;2023-04-03T02:38:30;97785.88;;;6.14;100.00
70254;BME280;57649;42.968;1.608;2023-04-03T02:41:05;97789.81;;;6.20;100.00
70254;BME280;57649;42.968;1.608;2023-04-03T02:43:31;97795.50;;;6.36;100.00
70254;BME280;57649;42.968;1.608;2023-04-03T02:45:57;97789.97;;;6.49;100.00
70254;BME280;57649;42.968;1.608;2023-04-03T02:48:22;97795.88;;;6.53;100.00
70254;BME280;57649;42.968;1.608;2023-04-03T02:50:48;97783.81;;;6.49;100.00
70254;BME280;57649;42.968;1.608;2023-04-03T02:53:13;97787.44;;;6.48;100.00
70254;BME280;57649;42.968;1.608;2023-04-03T02:55:40;97778.50;;;6.49;100.00
70254;BME280;57649;42.968;1.608;2023-04-03T02:58:05;97782.56;;;6.53;100.00
70254;BME280;57649;42.968;1.608;2023-04-03T03:00:31;97774.69;;;6.42;100.00
70254;BME280;57649;42.968;1.608;2023-04-03T03:02:56;97777.09;;;6.45;100.00
70254;BME280;57649;42.968;1.608;2023-04-03T03:05:22;97780.44;;;6.47;100.00
70254;BME280;57649;42.968;1.608;2023-04-03T03:07:47;97777.34;;;6.42;100.00
70254;BME280;57649;42.968;1.608;2023-04-03T03:10:13;97776.88;;;6.58;100.00
70254;BME280;57649;42.968;1.608;2023-04-03T03:12:38;97766.16;;;6.48;100.00
70254;BME280;57649;42.968;1.608;2023-04-03T03:15:06;97777.38;;;6.51;100.00
70254;BME280;57649;42.968;1.608;2023-04-03T03:17:32;97772.97;;;6.41;100.00
70254;BME280;57649;42.968;1.608;2023-04-03T03:19:57;97771.66;;;6.25;100.00
70254;BME280;57649;42.968;1.608;2023-04-03T03:22:23;97765.38;;;6.05;100.00
70254;BME280;57649;42.968;1.608;2023-04-03T03:24:48;97755.34;;;6.09;100.00
70254;BME280;57649;42.968;1.608;2023-04-03T03:27:14;97760.06;;;6.05;100.00
70254;BME280;57649;42.968;1.608;2023-04-03T03:29:41;97768.06;;;6.05;100.00
70254;BME280;57649;42.968;1.608;2023-04-03T03:32:06;97757.88;;;6.10;100.00
70254;BME280;57649;42.968;1.608;2023-04-03T03:34:32;97747.50;;;6.07;100.00
70254;BME280;57649;42.968;1.608;2023-04-03T03:36:57;97761.91;;;6.05;100.00
70254;BME280;57649;42.968;1.608;2023-04-03T03:39:22;97752.22;;;6.04;100.00
70254;BME280;57649;42.968;1.608;2023-04-03T03:41:48;97747.44;;;5.97;100.00
70254;BME280;57649;42.968;1.608;2023-04-03T03:44:14;97746.91;;;6.04;100.00
70254;BME280;57649;42.968;1.608;2023-04-03T03:46:40;97751.16;;;6.06;100.00
70254;BME280;57649;42.968;1.608;2023-04-03T03:49:05;97746.38;;;6.10;100.00
70254;BME280;57649;42.968;1.608;2023-04-03T03:51:31;97752.44;;;6.12;100.00
70254;BME280;57649;42.968;1.608;2023-04-03T03:53:56;97741.94;;;6.10;100.00
70254;BME280;57649;42.968;1.608;2023-04-03T03:56:22;97739.13;;;6.12;100.00
70254;BME280;57649;42.968;1.608;2023-04-03T03:58:47;97731.59;;;6.17;100.00
70254;BME280;57649;42.968;1.608;2023-04-03T04:01:14;97734.22;;;6.07;100.00
70254;BME280;57649;42.968;1.608;2023-04-03T04:03:41;97742.34;;;5.94;100.00
70254;BME280;57649;42.968;1.608;2023-04-03T04:06:07;97742.88;;;5.88;100.00
70254;BME280;57649;42.968;1.608;2023-04-03T04:08:32;97732.63;;;5.84;100.00
70254;BME280;57649;42.968;1.608;2023-04-03T04:10:58;97736.41;;;5.81;100.00
70254;BME280;57649;42.968;1.608;2023-04-03T04:13:23;97729.69;;;5.77;100.00
70254;BME280;57649;42.968;1.608;2023-04-03T04:15:48;97727.66;;;5.90;100.00
70254;BME280;57649;42.968;1.608;2023-04-03T04:18:14;97734.06;;;6.09;100.00
70254;BME280;57649;42.968;1.608;2023-04-03T04:20:39;97733.03;;;6.00;100.00
70254;BME280;57649;42.968;1.608;2023-04-03T04:23:05;97726.41;;;5.94;100.00
70254;BME280;57649;42.968;1.608;2023-04-03T04:25:30;97736.03;;;6.07;100.00
70254;BME280;57649;42.968;1.608;2023-04-03T04:27:56;97713.78;;;6.08;100.00
70254;BME280;57649;42.968;1.608;2023-04-03T04:30:21;97720.25;;;6.15;100.00
70254;BME280;57649;42.968;1.608;2023-04-03T04:32:47;97721.81;;;6.18;100.00
70254;BME280;57649;42.968;1.608;2023-04-03T04:35:12;97724.19;;;6.21;100.00
70254;BME280;57649;42.968;1.608;2023-04-03T04:37:37;97723.94;;;6.24;100.00
70254;BME280;57649;42.968;1.608;2023-04-03T04:40:03;97717.25;;;6.29;100.00
70254;BME280;57649;42.968;1.608;2023-04-03T04:42:28;97726.63;;;6.33;100.00
70254;BME280;57649;42.968;1.608;2023-04-03T04:44:54;97722.09;;;6.24;100.00
70254;BME280;57649;42.968;1.608;2023-04-03T04:47:19;97709.97;;;6.31;100.00
70254;BME280;57649;42.968;1.608;2023-04-03T04:49:45;97726.09;;;6.40;100.00
70254;BME280;57649;42.968;1.608;2023-04-03T04:52:12;97715.47;;;6.40;100.00
70254;BME280;57649;42.968;1.608;2023-04-03T04:54:38;97719.53;;;6.44;100.00
70254;BME280;57649;42.968;1.608;2023-04-03T04:57:03;97715.72;;;6.36;100.00
70254;BME280;57649;42.968;1.608;2023-04-03T04:59:28;97715.16;;;6.33;100.00
70254;BME280;57649;42.968;1.608;2023-04-03T05:01:54;97712.63;;;6.31;100.00
70254;BME280;57649;42.968;1.608;2023-04-03T05:04:19;97712.91;;;6.28;100.00
70254;BME280;57649;42.968;1.608;2023-04-03T05:06:45;97713.91;;;6.37;100.00
70254;BME280;57649;42.968;1.608;2023-04-03T05:09:10;97711.38;;;6.35;100.00
70254;BME280;57649;42.968;1.608;2023-04-03T05:11:36;97716.97;;;6.32;100.00
70254;BME280;57649;42.968;1.608;2023-04-03T05:14:01;97703.94;;;6.29;100.00
70254;BME280;57649;42.968;1.608;2023-04-03T05:16:27;97704.41;;;6.44;100.00
70254;BME280;57649;42.968;1.608;2023-04-03T05:18:52;97711.00;;;6.50;100.00
70254;BME280;57649;42.968;1.608;2023-04-03T05:21:18;97699.41;;;6.51;100.00
70254;BME280;57649;42.968;1.608;2023-04-03T05:23:43;97714.25;;;6.53;100.00
70254;BME280;57649;42.968;1.608;2023-04-03T05:26:10;97708.78;;;6.55;100.00
70254;BME280;57649;42.968;1.608;2023-04-03T05:28:36;97704.19;;;6.57;100.00
70254;BME280;57649;42.968;1.608;2023-04-03T05:31:02;97709.34;;;6.49;100.00
70254;BME280;57649;42.968;1.608;2023-04-03T05:33:27;97713.28;;;6.54;100.00
70254;BME280;57649;42.968;1.608;2023-04-03T05:35:54;97714.38;;;6.52;100.00
70254;BME280;57649;42.968;1.608;2023-04-03T05:38:19;97717.78;;;6.54;100.00
70254;BME280;57649;42.968;1.608;2023-04-03T05:40:45;97718.16;;;6.49;100.00
70254;BME280;57649;42.968;1.608;2023-04-03T05:43:11;97711.81;;;6.41;100.00
70254;BME280;57649;42.968;1.608;2023-04-03T05:45:36;97721.41;;;6.53;100.00
70254;BME280;57649;42.968;1.608;2023-04-03T05:48:02;97722.94;;;6.55;100.00
70254;BME280;57649;42.968;1.608;2023-04-03T05:50:27;97715.63;;;6.48;100.00
70254;BME280;57649;42.968;1.608;2023-04-03T05:52:55;97717.59;;;6.46;100.00
70254;BME280;57649;42.968;1.608;2023-04-03T05:55:21;97718.53;;;6.35;100.00
70254;BME280;57649;42.968;1.608;2023-04-03T05:57:47;97715.63;;;6.48;100.00
70254;BME280;57649;42.968;1.608;2023-04-03T06:00:13;97717.72;;;6.44;100.00
70254;BME280;57649;42.968;1.608;2023-04-03T06:02:41;97713.38;;;6.43;100.00
70254;BME280;57649;42.968;1.608;2023-04-03T06:05:07;97730.66;;;6.59;100.00
70254;BME280;57649;42.968;1.608;2023-04-03T06:07:33;97737.03;;;6.46;100.00
70254;BME280;57649;42.968;1.608;2023-04-03T06:09:59;97724.44;;;6.48;100.00
70254;BME280;57649;42.968;1.608;2023-04-03T06:12:25;97728.06;;;6.38;100.00
70254;BME280;57649;42.968;1.608;2023-04-03T06:14:50;97729.47;;;6.42;100.00
70254;BME280;57649;42.968;1.608;2023-04-03T06:17:16;97739.84;;;6.45;100.00
70254;BME280;57649;42.968;1.608;2023-04-03T06:19:43;97745.94;;;6.35;100.00
70254;BME280;57649;42.968;1.608;2023-04-03T06:22:08;97744.97;;;6.36;100.00
70254;BME280;57649;42.968;1.608;2023-04-03T06:24:34;97743.69;;;6.31;100.00
70254;BME280;57649;42.968;1.608;2023-04-03T06:27:00;97736.03;;;6.38;100.00
70254;BME280;57649;42.968;1.608;2023-04-03T06:29:26;97743.06;;;6.48;100.00
70254;BME280;57649;42.968;1.608;2023-04-03T06:31:51;97759.13;;;6.37;100.00
70254;BME280;57649;42.968;1.608;2023-04-03T06:34:17;97759.97;;;6.38;100.00
70254;BME280;57649;42.968;1.608;2023-04-03T06:36:43;97758.28;;;6.36;100.00
70254;BME280;57649;42.968;1.608;2023-04-03T06:39:15;97750.56;;;6.33;100.00
70254;BME280;57649;42.968;1.608;2023-04-03T06:41:40;97750.41;;;6.25;100.00
70254;BME280;57649;42.968;1.608;2023-04-03T06:44:06;97748.88;;;6.32;100.00
70254;BME280;57649;42.968;1.608;2023-04-03T06:46:33;97755.28;;;6.30;100.00
70254;BME280;57649;42.968;1.608;2023-04-03T06:48:58;97738.94;;;6.25;100.00
70254;BME280;57649;42.968;1.608;2023-04-03T06:51:26;97747.72;;;6.25;100.00
70254;BME280;57649;42.968;1.608;2023-04-03T06:53:55;97736.41;;;6.23;100.00
70254;BME280;57649;42.968;1.608;2023-04-03T06:56:21;97745.31;;;6.22;100.00
70254;BME280;57649;42.968;1.608;2023-04-03T06:58:47;97735.94;;;6.18;100.00
70254;BME280;57649;42.968;1.608;2023-04-03T07:01:14;97740.84;;;6.23;100.00
70254;BME280;57649;42.968;1.608;2023-04-03T07:03:40;97751.56;;;6.11;100.00
70254;BME280;57649;42.968;1.608;2023-04-03T07:06:07;97744.75;;;6.19;100.00
70254;BME280;57649;42.968;1.608;2023-04-03T07:08:33;97726.69;;;6.12;100.00
70254;BME280;57649;42.968;1.608;2023-04-03T07:10:59;97729.59;;;6.09;100.00
70254;BME280;57649;42.968;1.608;2023-04-03T07:13:25;97739.22;;;6.31;100.00
70254;BME280;57649;42.968;1.608;2023-04-03T07:15:51;97745.81;;;6.37;100.00
70254;BME280;57649;42.968;1.608;2023-04-03T07:18:18;97741.25;;;6.49;100.00
70254;BME280;57649;42.968;1.608;2023-04-03T07:20:43;97732.66;;;6.35;100.00
70254;BME280;57649;42.968;1.608;2023-04-03T07:23:09;97740.91;;;6.32;100.00
70254;BME280;57649;42.968;1.608;2023-04-03T07:25:34;97749.47;;;6.36;100.00
70254;BME280;57649;42.968;1.608;2023-04-03T07:28:00;97751.00;;;6.39;100.00
70254;BME280;57649;42.968;1.608;2023-04-03T07:30:26;97746.53;;;6.39;100.00
70254;BME280;57649;42.968;1.608;2023-04-03T07:32:51;97752.13;;;6.36;100.00
70254;BME280;57649;42.968;1.608;2023-04-03T07:35:17;97756.03;;;6.32;100.00
70254;BME280;57649;42.968;1.608;2023-04-03T07:37:43;97749.97;;;6.30;100.00
70254;BME280;57649;42.968;1.608;2023-04-03T07:40:08;97748.44;;;6.27;100.00
70254;BME280;57649;42.968;1.608;2023-04-03T07:42:34;97743.69;;;6.31;100.00
70254;BME280;57649;42.968;1.608;2023-04-03T07:45:00;97750.06;;;6.19;100.00
70254;BME280;57649;42.968;1.608;2023-04-03T07:47:27;97739.06;;;6.23;100.00
70254;BME280;57649;42.968;1.608;2023-04-03T07:49:52;97745.31;;;6.22;100.00
70254;BME280;57649;42.968;1.608;2023-04-03T07:52:17;97754.34;;;6.31;100.00
70254;BME280;57649;42.968;1.608;2023-04-03T07:54:43;97744.31;;;6.44;100.00
70254;BME280;57649;42.968;1.608;2023-04-03T07:57:08;97749.38;;;6.47;100.00
70254;BME280;57649;42.968;1.608;2023-04-03T07:59:34;97747.09;;;6.43;100.00
70254;BME280;57649;42.968;1.608;2023-04-03T08:01:59;97741.78;;;6.43;100.00
70254;BME280;57649;42.968;1.608;2023-04-03T08:04:25;97749.63;;;6.44;100.00
70254;BME280;57649;42.968;1.608;2023-04-03T08:06:51;97738.16;;;6.44;100.00
70254;BME280;57649;42.968;1.608;2023-04-03T08:09:17;97737.09;;;6.56;100.00
70254;BME280;57649;42.968;1.608;2023-04-03T08:11:44;97742.03;;;6.70;100.00
70254;BME280;57649;42.968;1.608;2023-04-03T08:14:10;97724.06;;;6.53;100.00
70254;BME280;57649;42.968;1.608;2023-04-03T08:16:40;97723.25;;;6.72;100.00
70254;BME280;57649;42.968;1.608;2023-04-03T08:19:06;97729.75;;;6.89;100.00
70254;BME280;57649;42.968;1.608;2023-04-03T08:21:32;97730.28;;;6.73;100.00
70254;BME280;57649;42.968;1.608;2023-04-03T08:23:58;97739.91;;;6.74;100.00
70254;BME280;57649;42.968;1.608;2023-04-03T08:26:23;97734.91;;;6.81;99.99
70254;BME280;57649;42.968;1.608;2023-04-03T08:28:49;97735.22;;;6.87;96.76
70254;BME280;57649;42.968;1.608;2023-04-03T08:31:16;97728.63;;;6.82;100.00
70254;BME280;57649;42.968;1.608;2023-04-03T08:33:44;97747.69;;;6.87;99.08
70254;BME280;57649;42.968;1.608;2023-04-03T08:36:21;97727.09;;;6.89;100.00
70254;BME280;57649;42.968;1.608;2023-04-03T08:38:47;97739.72;;;6.97;99.90
70254;BME280;57649;42.968;1.608;2023-04-03T08:44:02;97742.66;;;6.93;98.50
70254;BME280;57649;42.968;1.608;2023-04-03T08:49:31;97737.63;;;7.00;98.75
70254;BME280;57649;42.968;1.608;2023-04-03T08:52:03;97739.59;;;6.98;99.91
70254;BME280;57649;42.968;1.608;2023-04-03T08:54:47;97744.53;;;7.22;97.35
70254;BME280;57649;42.968;1.608;2023-04-03T08:57:14;97745.22;;;7.24;99.23
70254;BME280;57649;42.968;1.608;2023-04-03T08:59:40;97740.59;;;7.26;95.39
70254;BME280;57649;42.968;1.608;2023-04-03T09:02:29;97742.56;;;7.24;99.04
70254;BME280;57649;42.968;1.608;2023-04-03T09:04:56;97747.75;;;7.26;100.00
70254;BME280;57649;42.968;1.608;2023-04-03T09:07:59;97746.44;;;7.01;95.41
70254;BME280;57649;42.968;1.608;2023-04-03T09:10:28;97740.59;;;7.17;97.17
70254;BME280;57649;42.968;1.608;2023-04-03T09:13:03;97739.34;;;7.21;94.90
70254;BME280;57649;42.968;1.608;2023-04-03T09:15:32;97731.78;;;7.26;94.44
70254;BME280;57649;42.968;1.608;2023-04-03T09:18:00;97738.06;;;7.25;97.74
70254;BME280;57649;42.968;1.608;2023-04-03T09:20:42;97721.69;;;7.29;93.95
70254;BME280;57649;42.968;1.608;2023-04-03T09:23:20;97725.34;;;7.38;92.03
70254;BME280;57649;42.968;1.608;2023-04-03T09:25:46;97721.41;;;7.42;94.38
70254;BME280;57649;42.968;1.608;2023-04-03T09:28:13;97719.16;;;7.47;97.28
70254;BME280;57649;42.968;1.608;2023-04-03T09:30:38;97720.13;;;7.46;98.67
70254;BME280;57649;42.968;1.608;2023-04-03T09:33:04;97714.22;;;7.72;96.38
70254;BME280;57649;42.968;1.608;2023-04-03T09:38:18;97703.28;;;7.75;90.11
70254;BME280;57649;42.968;1.608;2023-04-03T09:40:46;97701.00;;;7.90;93.25
70254;BME280;57649;42.968;1.608;2023-04-03T09:45:41;97677.44;;;7.85;87.99
70254;BME280;57649;42.968;1.608;2023-04-03T09:48:08;97684.47;;;7.86;88.19
70254;BME280;57649;42.968;1.608;2023-04-03T09:50:35;97675.53;;;8.15;89.81
70254;BME280;57649;42.968;1.608;2023-04-03T09:53:07;97672.78;;;8.35;88.61
70254;BME280;57649;42.968;1.608;2023-04-03T09:55:42;97666.00;;;8.40;88.72
70254;BME280;57649;42.968;1.608;2023-04-03T09:58:27;97660.13;;;8.37;87.15
70254;BME280;57649;42.968;1.608;2023-04-03T10:00:58;97654.34;;;8.41;90.34
70254;BME280;57649;42.968;1.608;2023-04-03T10:03:31;97651.44;;;8.35;89.17
70254;BME280;57649;42.968;1.608;2023-04-03T10:05:57;97643.28;;;8.36;91.32
70254;BME280;57649;42.968;1.608;2023-04-03T10:08:34;97644.34;;;8.53;92.32
70254;BME280;57649;42.968;1.608;2023-04-03T10:11:14;97648.78;;;8.62;92.82
70254;BME280;57649;42.968;1.608;2023-04-03T10:16:24;97653.94;;;8.92;86.55
70254;BME280;57649;42.968;1.608;2023-04-03T10:19:03;97653.34;;;8.98;87.32
70254;BME280;57649;42.968;1.608;2023-04-03T10:21:57;97654.41;;;9.05;89.36
70254;BME280;57649;42.968;1.608;2023-04-03T10:24:38;97663.50;;;8.94;91.63
70254;BME280;57649;42.968;1.608;2023-04-03T10:32:45;97662.25;;;8.89;88.95
70254;BME280;57649;42.968;1.608;2023-04-03T10:37:54;97660.56;;;8.88;89.66
70254;BME280;57649;42.968;1.608;2023-04-03T10:40:30;97652.66;;;8.96;89.46
70254;BME280;57649;42.968;1.608;2023-04-03T10:46:00;97650.16;;;8.48;88.17
70254;BME280;57649;42.968;1.608;2023-04-03T10:51:12;97649.13;;;8.50;88.99
70254;BME280;57649;42.968;1.608;2023-04-03T11:01:34;97640.59;;;8.74;87.74
70254;BME280;57649;42.968;1.608;2023-04-03T11:04:03;97635.53;;;8.71;88.36
70254;BME280;57649;42.968;1.608;2023-04-03T11:06:48;97628.13;;;8.46;87.55
70254;BME280;57649;42.968;1.608;2023-04-03T11:09:28;97641.00;;;8.51;88.19
70254;BME280;57649;42.968;1.608;2023-04-03T11:12:00;97625.53;;;8.55;90.31
70254;BME280;57649;42.968;1.608;2023-04-03T11:14:31;97627.13;;;8.38;88.67
70254;BME280;57649;42.968;1.608;2023-04-03T11:27:47;97628.13;;;7.62;100.00
70254;BME280;57649;42.968;1.608;2023-04-03T11:30:28;97638.47;;;7.84;97.32
70254;BME280;57649;42.968;1.608;2023-04-03T11:35:23;97623.81;;;7.98;96.17
70254;BME280;57649;42.968;1.608;2023-04-03T11:37:53;97609.75;;;8.06;93.86
70254;BME280;57649;42.968;1.608;2023-04-03T11:40:25;97617.09;;;7.94;94.28
70254;BME280;57649;42.968;1.608;2023-04-03T11:42:55;97621.50;;;7.76;93.87
70254;BME280;57649;42.968;1.608;2023-04-03T11:51:39;97610.03;;;8.03;90.70
70254;BME280;57649;42.968;1.608;2023-04-03T11:53:52;97598.78;;;8.09;88.36
70254;BME280;57649;42.968;1.608;2023-04-03T12:01:47;97594.13;;;8.48;87.25
70254;BME280;57649;42.968;1.608;2023-04-03T12:04:15;97587.72;;;8.59;92.53
70254;BME280;57649;42.968;1.608;2023-04-03T12:11:53;97575.63;;;8.83;89.79
70254;BME280;57649;42.968;1.608;2023-04-03T12:14:23;97589.31;;;8.88;87.67
70254;BME280;57649;42.968;1.608;2023-04-03T12:16:52;97580.09;;;9.00;89.20
70254;BME280;57649;42.968;1.608;2023-04-03T12:19:37;97568.56;;;9.18;89.24
70254;BME280;57649;42.968;1.608;2023-04-03T12:22:08;97563.13;;;9.28;90.56
70254;BME280;57649;42.968;1.608;2023-04-03T12:24:39;97565.91;;;9.18;85.78
70254;BME280;57649;42.968;1.608;2023-04-03T12:27:09;97555.75;;;9.03;88.04
70254;BME280;57649;42.968;1.608;2023-04-03T12:29:57;97552.16;;;9.13;87.95
70254;BME280;57649;42.968;1.608;2023-04-03T12:35:29;97554.59;;;9.06;88.19
70254;BME280;57649;42.968;1.608;2023-04-03T12:38:22;97554.69;;;9.14;87.58
70254;BME280;57649;42.968;1.608;2023-04-03T12:43:43;97548.81;;;9.11;84.46
70254;BME280;57649;42.968;1.608;2023-04-03T12:46:21;97536.03;;;9.49;87.59
70254;BME280;57649;42.968;1.608;2023-04-03T12:48:52;97534.53;;;9.80;86.68
70254;BME280;57649;42.968;1.608;2023-04-03T12:56:38;97519.69;;;9.86;82.49
70254;BME280;57649;42.968;1.608;2023-04-03T12:59:24;97528.34;;;9.46;83.26
70254;BME280;57649;42.968;1.608;2023-04-03T13:02:00;97523.59;;;9.39;81.71
70254;BME280;57649;42.968;1.608;2023-04-03T13:04:28;97510.56;;;9.62;85.69
70254;BME280;57649;42.968;1.608;2023-04-03T13:06:54;97501.25;;;9.75;84.07
70254;BME280;57649;42.968;1.608;2023-04-03T13:11:49;97499.72;;;9.72;79.15
70254;BME280;57649;42.968;1.608;2023-04-03T13:14:21;97506.41;;;9.68;80.78
70254;BME280;57649;42.968;1.608;2023-04-03T13:16:59;97491.44;;;9.83;83.40
70254;BME280;57649;42.968;1.608;2023-04-03T13:19:26;97490.47;;;9.93;75.67
70254;BME280;57649;42.968;1.608;2023-04-03T13:22:34;97491.09;;;9.78;77.23
70254;BME280;57649;42.968;1.608;2023-04-03T13:25:09;97488.13;;;9.90;76.90
70254;BME280;57649;42.968;1.608;2023-04-03T13:27:36;97478.41;;;9.89;76.69
70254;BME280;57649;42.968;1.608;2023-04-03T13:30:05;97486.78;;;9.86;79.24
70254;BME280;57649;42.968;1.608;2023-04-03T13:32:31;97480.94;;;9.56;78.01
70254;BME280;57649;42.968;1.608;2023-04-03T13:34:57;97469.84;;;9.42;77.69
70254;BME280;57649;42.968;1.608;2023-04-03T13:37:32;97479.06;;;9.48;77.16
70254;BME280;57649;42.968;1.608;2023-04-03T13:42:35;97468.53;;;9.81;80.16
70254;BME280;57649;42.968;1.608;2023-04-03T13:45:21;97458.03;;;9.96;77.91
70254;BME280;57649;42.968;1.608;2023-04-03T13:47:50;97459.09;;;10.11;76.75
70254;BME280;57649;42.968;1.608;2023-04-03T13:50:21;97449.56;;;10.17;77.11
70254;BME280;57649;42.968;1.608;2023-04-03T13:53:09;97442.19;;;10.11;74.03
70254;BME280;57649;42.968;1.608;2023-04-03T13:58:27;97436.03;;;10.18;73.52
70254;BME280;57649;42.968;1.608;2023-04-03T14:00:55;97431.00;;;10.24;75.12
70254;BME280;57649;42.968;1.608;2023-04-03T14:05:49;97430.56;;;10.36;73.35
70254;BME280;57649;42.968;1.608;2023-04-03T14:08:15;97414.34;;;10.46;73.79
70254;BME280;57649;42.968;1.608;2023-04-03T14:10:41;97416.34;;;10.52;74.57
70254;BME280;57649;42.968;1.608;2023-04-03T14:13:15;97409.63;;;10.89;77.07
70254;BME280;57649;42.968;1.608;2023-04-03T14:15:41;97413.28;;;11.05;73.76
70254;BME280;57649;42.968;1.608;2023-04-03T14:18:11;97420.69;;;10.86;74.17
70254;BME280;57649;42.968;1.608;2023-04-03T14:20:37;97408.50;;;10.75;71.99
70254;BME280;57649;42.968;1.608;2023-04-03T14:23:02;97406.97;;;10.81;72.65
70254;BME280;57649;42.968;1.608;2023-04-03T14:25:28;97400.91;;;10.87;75.39
70254;BME280;57649;42.968;1.608;2023-04-03T14:27:54;97402.59;;;10.96;73.92
70254;BME280;57649;42.968;1.608;2023-04-03T14:30:28;97390.56;;;10.76;71.39
70254;BME280;57649;42.968;1.608;2023-04-03T14:32:53;97391.72;;;10.90;71.72
70254;BME280;57649;42.968;1.608;2023-04-03T14:35:20;97388.44;;;11.19;73.75
70254;BME280;57649;42.968;1.608;2023-04-03T14:37:47;97387.50;;;11.04;72.10
70254;BME280;57649;42.968;1.608;2023-04-03T14:40:20;97376.47;;;11.46;74.75
70254;BME280;57649;42.968;1.608;2023-04-03T14:42:46;97372.63;;;11.49;71.29
70254;BME280;57649;42.968;1.608;2023-04-03T14:45:13;97362.72;;;11.49;70.50